Time;durP1;ratioP1;P1;durP2;ratioP2;P2;SDS_P1;SDS_P2;PMS_P1;PMS_P2;Temp;Humidity;BMP_temperature;BMP_pressure;BME280_temperature;BME280_humidity;BME280_pressure;Samples;Min_cycle;Max_cycle;Signal;HPM_P1;HPM_P2
2021/10/17 00:00:03;;;;;;;4.97;2.35;;;10.80;81.30;;;;;;2065056;28;20608;-93
2021/10/17 00:01:04;;;;;;;5.22;2.67;;;10.80;81.30;;;;;;2073702;28;20042;-93
2021/10/17 00:02:04;;;;;;;5.80;2.80;;;10.70;81.20;;;;;;2082415;28;20080;-93
2021/10/17 00:03:05;;;;;;;4.97;2.53;;;10.70;81.20;;;;;;2081577;28;20080;-94
2021/10/17 00:04:05;;;;;;;6.18;2.38;;;10.80;81.30;;;;;;2081620;28;20069;-93
2021/10/17 00:05:07;;;;;;;5.68;2.80;;;10.80;81.20;;;;;;2081960;28;20038;-93
2021/10/17 00:06:08;;;;;;;5.40;2.42;;;10.80;81.20;;;;;;2082126;28;20037;-93
2021/10/17 00:07:10;;;;;;;6.05;2.60;;;10.70;81.20;;;;;;2073372;28;20941;-94
2021/10/17 00:08:10;;;;;;;6.25;2.60;;;10.70;81.20;;;;;;2065169;28;20038;-93
2021/10/17 00:09:11;;;;;;;6.32;3.03;;;10.70;81.20;;;;;;2065188;28;20035;-93
2021/10/17 00:10:18;;;;;;;5.93;2.67;;;10.70;81.20;;;;;;2065158;28;20484;-94
2021/10/17 00:11:19;;;;;;;5.63;2.85;;;10.70;81.30;;;;;;2082605;28;20067;-93
2021/10/17 00:12:20;;;;;;;7.22;2.90;;;10.70;81.30;;;;;;2081685;28;20092;-94
2021/10/17 00:13:21;;;;;;;5.07;2.50;;;10.70;81.30;;;;;;2081108;28;20126;-93
2021/10/17 00:14:21;;;;;;;5.32;2.80;;;10.70;81.20;;;;;;2073959;28;20479;-93
2021/10/17 00:15:24;;;;;;;5.88;2.80;;;10.70;81.20;;;;;;2073538;28;20045;-93
2021/10/17 00:16:24;;;;;;;5.50;2.30;;;10.70;81.20;;;;;;2082600;28;20492;-93
2021/10/17 00:17:25;;;;;;;6.57;3.10;;;10.70;81.20;;;;;;2081905;28;20049;-93
2021/10/17 00:18:26;;;;;;;5.15;2.72;;;10.70;81.20;;;;;;2081731;28;20061;-93
2021/10/17 00:19:26;;;;;;;7.55;2.92;;;10.70;81.10;;;;;;2081582;28;20037;-94
2021/10/17 00:20:29;;;;;;;5.88;2.55;;;10.70;81.20;;;;;;2081514;28;20040;-94
2021/10/17 00:21:29;;;;;;;6.18;2.72;;;10.70;81.20;;;;;;2073650;28;20129;-94
2021/10/17 00:22:30;;;;;;;4.47;2.63;;;10.70;81.20;;;;;;2081687;28;20042;-93
2021/10/17 00:23:31;;;;;;;6.05;2.80;;;10.70;81.20;;;;;;2073442;28;20030;-93
2021/10/17 00:24:31;;;;;;;6.20;2.63;;;10.70;81.20;;;;;;2057284;28;20061;-93
2021/10/17 00:25:32;;;;;;;5.18;2.55;;;10.70;81.20;;;;;;2065202;28;20044;-93
2021/10/17 00:26:34;;;;;;;5.68;2.53;;;10.70;81.20;;;;;;2065099;28;20043;-93
2021/10/17 00:27:35;;;;;;;5.68;2.50;;;10.70;81.20;;;;;;2057194;28;20134;-93
2021/10/17 00:28:36;;;;;;;5.63;2.50;;;10.70;81.20;;;;;;2057621;28;20038;-93
2021/10/17 00:29:36;;;;;;;6.65;2.60;;;10.70;81.20;;;;;;2056733;28;20421;-93
2021/10/17 00:30:37;;;;;;;7.38;2.53;;;10.70;81.10;;;;;;2065367;28;20460;-93
2021/10/17 00:31:38;;;;;;;5.85;2.95;;;10.70;81.00;;;;;;2081333;28;20467;-93
2021/10/17 00:32:39;;;;;;;5.57;2.42;;;10.70;81.00;;;;;;2073187;28;20500;-95
2021/10/17 00:33:39;;;;;;;6.05;2.60;;;10.70;81.10;;;;;;2073373;28;20401;-93
2021/10/17 00:34:40;;;;;;;4.50;2.20;;;10.70;81.10;;;;;;2081621;28;20045;-93
2021/10/17 00:35:41;;;;;;;7.00;2.63;;;10.70;81.10;;;;;;2090185;28;20124;-94
2021/10/17 00:36:42;;;;;;;5.65;2.60;;;10.70;81.20;;;;;;2090185;28;20033;-93
2021/10/17 00:37:44;;;;;;;8.63;2.80;;;10.70;81.20;;;;;;2090342;28;20032;-93
2021/10/17 00:38:44;;;;;;;5.63;2.30;;;10.70;81.20;;;;;;2090223;28;20053;-93
2021/10/17 00:39:46;;;;;;;6.57;2.55;;;10.70;81.20;;;;;;2087778;28;20029;-93
2021/10/17 00:40:47;;;;;;;5.85;2.67;;;10.70;81.20;;;;;;2056847;28;20050;-93
2021/10/17 00:41:47;;;;;;;7.65;2.65;;;10.70;81.30;;;;;;2057368;28;20037;-92
2021/10/17 00:42:49;;;;;;;4.13;2.22;;;10.70;81.30;;;;;;2074816;28;20373;-94
2021/10/17 00:43:50;;;;;;;7.35;2.90;;;10.70;81.40;;;;;;2074833;28;20041;-93
2021/10/17 00:45:04;;;;;;;5.63;2.30;;;10.70;81.40;;;;;;2066637;28;20076;-94
2021/10/17 00:46:13;;;;;;;6.13;2.40;;;10.70;81.40;;;;;;2068640;28;20034;-93
2021/10/17 00:47:14;;;;;;;4.35;2.20;;;10.70;81.40;;;;;;2059859;28;20042;-93
2021/10/17 00:48:14;;;;;;;5.13;2.55;;;10.70;81.40;;;;;;2059798;28;20600;-93
2021/10/17 00:49:15;;;;;;;5.43;2.60;;;10.70;81.40;;;;;;2075608;28;20034;-94
2021/10/17 00:50:16;;;;;;;5.47;2.38;;;10.70;81.40;;;;;;2083212;28;20037;-92
2021/10/17 00:51:16;;;;;;;7.28;2.47;;;10.70;81.40;;;;;;2074741;28;20041;-93
2021/10/17 00:52:17;;;;;;;5.47;2.40;;;10.70;81.40;;;;;;2058451;28;20031;-94
2021/10/17 00:53:19;;;;;;;6.25;2.50;;;10.70;81.40;;;;;;2058889;28;20066;-93
2021/10/17 00:54:20;;;;;;;5.05;2.60;;;10.70;81.30;;;;;;2067177;28;20042;-94
2021/10/17 00:55:22;;;;;;;5.45;2.45;;;10.70;81.30;;;;;;2066581;28;20042;-93
2021/10/17 00:56:23;;;;;;;5.82;2.80;;;10.70;81.90;;;;;;2075249;28;20086;-93
2021/10/17 00:57:24;;;;;;;4.95;2.20;;;10.70;81.30;;;;;;2091845;28;20072;-92
2021/10/17 00:58:24;;;;;;;6.13;2.65;;;10.70;81.30;;;;;;2091704;28;20126;-92
2021/10/17 00:59:25;;;;;;;6.05;2.30;;;10.70;81.30;;;;;;2082915;28;20049;-93
2021/10/17 01:00:26;;;;;;;5.63;2.38;;;10.70;81.30;;;;;;2074594;28;20132;-93
2021/10/17 01:01:26;;;;;;;4.65;2.33;;;10.70;81.90;;;;;;2082967;28;20474;-92
2021/10/17 01:02:27;;;;;;;6.22;2.50;;;10.70;81.30;;;;;;2091034;28;20033;-93
2021/10/17 01:03:28;;;;;;;5.00;2.25;;;10.70;81.30;;;;;;2091797;28;20037;-94
2021/10/17 01:04:28;;;;;;;5.30;2.40;;;10.70;81.30;;;;;;2091471;28;20048;-93
2021/10/17 01:05:29;;;;;;;4.90;2.17;;;10.60;81.20;;;;;;2091795;28;20041;-94
2021/10/17 01:06:30;;;;;;;5.35;2.38;;;10.70;81.20;;;;;;2082738;28;20037;-94
2021/10/17 01:07:31;;;;;;;7.32;2.60;;;10.70;81.20;;;;;;2074611;28;20050;-94
2021/10/17 01:08:31;;;;;;;5.72;2.40;;;10.70;81.10;;;;;;2088376;28;20033;-93
2021/10/17 01:09:35;;;;;;;4.95;2.33;;;10.70;81.10;;;;;;2071780;28;20062;-94
2021/10/17 01:10:35;;;;;;;5.90;2.42;;;10.70;81.10;;;;;;2079724;28;20038;-94
2021/10/17 01:11:44;;;;;;;5.50;2.60;;;10.70;81.10;;;;;;2091402;28;20037;-92
2021/10/17 01:12:45;;;;;;;4.45;2.42;;;10.60;81.10;;;;;;2091752;28;20037;-93
2021/10/17 01:13:46;;;;;;;4.63;2.55;;;10.70;81.10;;;;;;2093930;28;20116;-94
2021/10/17 01:14:47;;;;;;;4.22;1.90;;;10.60;81.10;;;;;;2091544;28;20450;-93
2021/10/17 01:15:55;;;;;;;5.70;2.10;;;10.60;81.10;;;;;;2084122;28;20044;-92
2021/10/17 01:16:56;;;;;;;6.10;2.25;;;10.60;81.00;;;;;;2085684;28;20044;-94
2021/10/17 01:17:56;;;;;;;4.45;2.20;;;10.60;81.00;;;;;;2091690;28;20123;-93
2021/10/17 01:18:57;;;;;;;6.15;2.20;;;10.60;81.00;;;;;;2082591;28;20091;-94
2021/10/17 01:19:58;;;;;;;4.70;2.15;;;10.60;80.90;;;;;;2082940;28;20446;-93
2021/10/17 01:20:59;;;;;;;5.10;2.20;;;10.70;81.00;;;;;;2082890;28;20045;-93
2021/10/17 01:22:02;;;;;;;6.20;2.28;;;10.60;81.00;;;;;;2082862;28;20107;-93
2021/10/17 01:23:03;;;;;;;4.97;2.35;;;10.60;81.00;;;;;;2090991;28;20033;-93
2021/10/17 01:24:04;;;;;;;6.40;2.25;;;10.70;81.10;;;;;;2091656;28;20086;-93
2021/10/17 01:25:06;;;;;;;6.10;2.28;;;10.60;81.10;;;;;;2085796;28;20079;-92
2021/10/17 01:26:06;;;;;;;5.72;2.33;;;10.60;81.10;;;;;;2085812;28;20112;-94
2021/10/17 01:27:07;;;;;;;4.32;2.10;;;10.60;81.10;;;;;;2085982;28;20034;-93
2021/10/17 01:28:07;;;;;;;6.10;2.50;;;10.60;81.10;;;;;;2086311;28;20037;-94
2021/10/17 01:29:08;;;;;;;5.72;2.35;;;10.60;81.10;;;;;;2087445;28;20037;-93
2021/10/17 01:30:15;;;;;;;5.00;2.40;;;10.60;81.10;;;;;;2078854;28;20110;-94
2021/10/17 01:31:16;;;;;;;5.63;2.38;;;10.60;81.10;;;;;;2078832;28;20078;-93
2021/10/17 01:32:16;;;;;;;5.50;2.15;;;10.60;81.10;;;;;;2087178;28;20536;-94
2021/10/17 01:33:18;;;;;;;4.80;2.33;;;10.60;81.10;;;;;;2083446;28;20492;-93
2021/10/17 01:34:20;;;;;;;5.53;2.60;;;10.60;81.80;;;;;;2074573;28;20113;-93
2021/10/17 01:35:21;;;;;;;5.18;2.58;;;10.60;81.20;;;;;;2074686;28;20401;-93
2021/10/17 01:36:21;;;;;;;6.07;2.60;;;10.60;81.20;;;;;;2074413;28;20089;-93
2021/10/17 01:37:22;;;;;;;4.50;2.13;;;10.60;81.20;;;;;;2066122;28;20037;-93
2021/10/17 01:38:23;;;;;;;5.32;2.50;;;10.60;81.10;;;;;;2080297;28;20093;-92
2021/10/17 01:39:24;;;;;;;5.05;2.30;;;10.70;81.20;;;;;;2074681;28;20042;-93
2021/10/17 01:40:25;;;;;;;6.40;2.60;;;10.60;81.20;;;;;;2090095;28;20077;-93
2021/10/17 01:41:25;;;;;;;5.30;2.33;;;10.60;81.20;;;;;;2109155;28;20024;-81
2021/10/17 01:42:26;;;;;;;5.25;2.17;;;10.60;81.20;;;;;;2092729;28;20022;-89
2021/10/17 01:43:27;;;;;;;5.03;2.15;;;10.60;81.20;;;;;;2075122;28;20400;-93
2021/10/17 01:44:36;;;;;;;4.70;2.20;;;10.60;81.30;;;;;;2084256;28;20124;-93
2021/10/17 01:45:37;;;;;;;5.50;2.38;;;10.60;81.30;;;;;;2074206;28;20100;-93
2021/10/17 01:46:38;;;;;;;6.00;2.50;;;10.60;81.30;;;;;;2058302;28;20502;-93
2021/10/17 01:47:47;;;;;;;4.28;2.33;;;10.60;81.30;;;;;;2066038;28;20041;-93
2021/10/17 01:48:48;;;;;;;7.53;2.40;;;10.70;81.30;;;;;;2083682;28;20128;-93
2021/10/17 01:49:48;;;;;;;5.38;2.33;;;10.70;81.30;;;;;;2082296;28;20431;-92
2021/10/17 01:50:49;;;;;;;5.40;2.60;;;10.60;81.30;;;;;;2082380;28;20049;-93
2021/10/17 01:51:50;;;;;;;6.35;2.28;;;10.60;81.40;;;;;;2090730;28;20051;-94
2021/10/17 01:52:50;;;;;;;5.57;2.22;;;10.60;81.50;;;;;;2074302;28;20085;-93
2021/10/17 01:53:51;;;;;;;3.97;2.42;;;10.60;81.50;;;;;;2057136;28;20137;-93
2021/10/17 01:54:52;;;;;;;4.75;2.22;;;10.60;81.50;;;;;;2057958;28;20485;-94
2021/10/17 01:55:52;;;;;;;5.47;2.17;;;10.60;81.50;;;;;;2058094;28;20493;-93
2021/10/17 01:56:53;;;;;;;4.63;2.30;;;10.60;81.50;;;;;;2074302;28;20492;-92
2021/10/17 01:57:54;;;;;;;4.68;2.20;;;10.60;81.50;;;;;;2090586;28;20119;-94
2021/10/17 01:58:55;;;;;;;7.18;2.45;;;10.60;81.60;;;;;;2090645;28;20041;-93
2021/10/17 01:59:55;;;;;;;5.32;2.40;;;10.60;81.60;;;;;;2091098;28;20425;-93
2021/10/17 02:00:56;;;;;;;5.60;2.45;;;10.60;81.60;;;;;;2091292;28;20033;-92
2021/10/17 02:01:56;;;;;;;5.20;2.13;;;10.60;81.60;;;;;;2091871;28;20043;-93
2021/10/17 02:02:57;;;;;;;4.88;2.20;;;10.70;81.70;;;;;;2091077;28;20071;-93
2021/10/17 02:04:02;;;;;;;5.78;2.53;;;10.60;81.60;;;;;;2091065;28;20098;-94
2021/10/17 02:05:03;;;;;;;8.02;2.40;;;10.60;81.60;;;;;;2091124;28;20033;-94
2021/10/17 02:06:03;;;;;;;4.60;2.47;;;10.60;81.60;;;;;;2091099;28;20041;-94
2021/10/17 02:07:04;;;;;;;4.72;2.30;;;10.60;81.60;;;;;;2090972;28;20056;-93
2021/10/17 02:08:05;;;;;;;5.18;2.38;;;10.60;81.50;;;;;;2090679;28;20507;-93
2021/10/17 02:09:05;;;;;;;5.20;2.50;;;10.60;81.60;;;;;;2083453;28;20053;-92
2021/10/17 02:10:07;;;;;;;5.15;2.30;;;10.60;81.60;;;;;;2075605;28;20061;-93
2021/10/17 02:11:08;;;;;;;6.32;2.50;;;10.60;81.60;;;;;;2076626;28;20038;-94
2021/10/17 02:12:08;;;;;;;6.20;2.33;;;10.60;81.60;;;;;;2078106;28;20046;-94
2021/10/17 02:13:09;;;;;;;6.45;2.50;;;10.60;81.70;;;;;;2080092;28;20034;-93
2021/10/17 02:14:10;;;;;;;5.30;2.30;;;10.60;81.70;;;;;;2093749;28;20041;-93
2021/10/17 02:15:10;;;;;;;5.57;2.42;;;10.50;81.70;;;;;;2083600;28;20029;-94
2021/10/17 02:16:11;;;;;;;6.85;2.85;;;10.60;81.80;;;;;;2075439;28;20042;-93
2021/10/17 02:17:11;;;;;;;4.40;1.95;;;10.60;81.80;;;;;;2066087;28;20495;-93
2021/10/17 02:18:12;;;;;;;8.52;2.38;;;10.50;81.80;;;;;;2065843;28;20039;-95
2021/10/17 02:19:13;;;;;;;5.05;2.20;;;10.50;81.90;;;;;;2066079;28;20121;-92
2021/10/17 02:20:14;;;;;;;4.28;2.00;;;10.50;81.90;;;;;;2082342;28;20041;-93
2021/10/17 02:21:14;;;;;;;3.65;2.30;;;10.50;81.90;;;;;;2074344;28;20034;-93
2021/10/17 02:22:15;;;;;;;5.05;2.35;;;10.50;81.90;;;;;;2074466;28;20077;-94
2021/10/17 02:23:16;;;;;;;5.25;2.25;;;10.50;82.00;;;;;;2083411;28;20037;-94
2021/10/17 02:24:17;;;;;;;6.68;2.40;;;10.60;82.10;;;;;;2084131;28;20513;-93
2021/10/17 02:25:17;;;;;;;5.13;2.20;;;10.60;82.10;;;;;;2089653;28;20048;-93
2021/10/17 02:26:18;;;;;;;4.95;2.20;;;10.60;82.10;;;;;;2084177;28;20041;-92
2021/10/17 02:27:19;;;;;;;4.85;2.20;;;10.60;82.10;;;;;;2084995;28;20411;-93
2021/10/17 02:28:19;;;;;;;5.38;2.30;;;10.60;82.20;;;;;;2088411;28;20035;-92
2021/10/17 02:29:20;;;;;;;4.82;2.20;;;10.50;82.20;;;;;;2092274;28;20055;-93
2021/10/17 02:30:21;;;;;;;5.15;2.55;;;10.50;82.20;;;;;;2090895;28;20116;-92
2021/10/17 02:31:22;;;;;;;5.90;2.20;;;10.60;82.70;;;;;;2081969;28;20562;-93
2021/10/17 02:32:23;;;;;;;5.38;2.40;;;10.50;82.30;;;;;;2082011;28;20136;-93
2021/10/17 02:33:24;;;;;;;5.10;2.38;;;10.60;82.40;;;;;;2082076;28;20113;-94
2021/10/17 02:34:26;;;;;;;4.95;2.25;;;10.60;82.40;;;;;;2081932;28;20037;-93
2021/10/17 02:35:26;;;;;;;5.97;2.42;;;10.60;82.40;;;;;;2082307;28;20044;-93
2021/10/17 02:36:27;;;;;;;4.20;2.20;;;10.50;82.30;;;;;;2082086;28;20443;-92
2021/10/17 02:37:31;;;;;;;5.00;2.42;;;10.60;82.40;;;;;;2081824;28;20072;-94
2021/10/17 02:38:32;;;;;;;5.78;2.13;;;10.50;82.30;;;;;;2090831;28;20523;-92
2021/10/17 02:39:32;;;;;;;6.63;1.98;;;10.60;82.30;;;;;;2090355;28;20033;-94
2021/10/17 02:40:33;;;;;;;4.78;2.20;;;10.60;82.30;;;;;;2081928;28;20491;-93
2021/10/17 02:41:34;;;;;;;4.47;2.35;;;10.60;82.20;;;;;;2081999;28;20041;-94
2021/10/17 02:42:35;;;;;;;5.32;2.40;;;10.60;82.30;;;;;;2088824;28;20141;-94
2021/10/17 02:43:36;;;;;;;5.60;2.42;;;10.60;82.30;;;;;;2081998;28;20127;-92
2021/10/17 02:44:37;;;;;;;5.78;2.40;;;10.60;82.30;;;;;;2073873;28;20042;-93
2021/10/17 02:45:37;;;;;;;4.72;2.08;;;10.60;82.30;;;;;;2082222;28;20138;-93
2021/10/17 02:46:38;;;;;;;5.60;2.40;;;10.60;82.40;;;;;;2081800;28;20052;-93
2021/10/17 02:47:39;;;;;;;3.05;1.88;;;10.50;82.30;;;;;;2081918;28;20053;-94
2021/10/17 02:48:40;;;;;;;5.20;2.30;;;10.50;82.40;;;;;;2082025;28;20175;-93
2021/10/17 02:49:40;;;;;;;3.03;1.80;;;10.50;82.40;;;;;;2073612;28;20149;-93
2021/10/17 02:50:41;;;;;;;5.13;2.30;;;10.50;82.50;;;;;;2065649;28;20039;-92
2021/10/17 02:51:42;;;;;;;5.88;2.28;;;10.50;82.50;;;;;;2065682;28;20046;-94
2021/10/17 02:52:43;;;;;;;6.18;2.13;;;10.50;82.50;;;;;;2081794;28;20096;-92
2021/10/17 02:53:44;;;;;;;4.40;2.13;;;10.50;82.40;;;;;;2081966;28;20125;-93
2021/10/17 02:54:45;;;;;;;6.25;2.50;;;10.50;82.50;;;;;;2081722;28;20052;-94
2021/10/17 02:55:45;;;;;;;5.20;2.38;;;10.50;82.50;;;;;;2073492;28;20049;-92
2021/10/17 02:56:46;;;;;;;5.65;2.25;;;10.50;82.50;;;;;;2065681;28;20137;-93
2021/10/17 02:57:48;;;;;;;5.00;2.25;;;10.50;82.50;;;;;;2066041;28;20041;-94
2021/10/17 02:58:48;;;;;;;5.60;1.92;;;10.40;82.50;;;;;;2081787;28;20594;-93
2021/10/17 02:59:49;;;;;;;4.82;2.40;;;10.40;82.60;;;;;;2080624;28;20083;-93
2021/10/17 03:00:50;;;;;;;4.13;2.20;;;10.40;82.70;;;;;;2082049;28;20184;-94
2021/10/17 03:01:52;;;;;;;7.25;2.40;;;10.40;82.70;;;;;;2073763;28;20121;-94
2021/10/17 03:02:52;;;;;;;6.40;2.33;;;10.40;82.80;;;;;;2073806;28;20172;-93
2021/10/17 03:03:53;;;;;;;4.60;2.05;;;10.40;82.90;;;;;;2073776;28;20075;-94
2021/10/17 03:04:54;;;;;;;4.63;2.20;;;10.40;82.90;;;;;;2065226;28;20664;-92
2021/10/17 03:05:54;;;;;;;6.10;2.30;;;10.40;82.90;;;;;;2057678;28;20522;-92
2021/10/17 03:06:55;;;;;;;5.47;2.38;;;10.30;82.90;;;;;;2057672;28;20086;-93
2021/10/17 03:07:56;;;;;;;5.50;2.25;;;10.30;82.80;;;;;;2081823;28;20068;-94
2021/10/17 03:08:57;;;;;;;5.65;2.53;;;10.30;82.80;;;;;;2082467;28;20046;-93
2021/10/17 03:09:57;;;;;;;6.00;2.28;;;10.30;82.80;;;;;;2081522;28;20516;-94
2021/10/17 03:10:58;;;;;;;5.55;2.30;;;10.30;82.80;;;;;;2082020;28;20033;-94
2021/10/17 03:11:59;;;;;;;5.45;2.33;;;10.30;82.80;;;;;;2073421;28;20119;-93
2021/10/17 03:12:59;;;;;;;4.32;2.28;;;10.30;82.90;;;;;;2065781;28;20382;-93
2021/10/17 03:14:01;;;;;;;4.90;2.10;;;10.30;82.90;;;;;;2073508;28;20041;-93
2021/10/17 03:15:04;;;;;;;4.80;2.33;;;10.30;83.00;;;;;;2065776;28;20030;-94
2021/10/17 03:16:05;;;;;;;4.95;2.08;;;10.30;83.00;;;;;;2074793;28;20049;-93
2021/10/17 03:17:06;;;;;;;6.30;2.42;;;10.30;83.10;;;;;;2081938;28;20076;-93
2021/10/17 03:18:07;;;;;;;5.15;2.25;;;10.30;83.20;;;;;;2081665;28;20060;-93
2021/10/17 03:19:11;;;;;;;5.45;2.10;;;10.30;83.20;;;;;;2081841;28;20037;-93
2021/10/17 03:20:12;;;;;;;4.93;2.30;;;10.30;83.20;;;;;;2082209;28;20029;-94
2021/10/17 03:21:12;;;;;;;5.07;2.28;;;10.30;83.10;;;;;;2081804;28;20538;-93
2021/10/17 03:22:13;;;;;;;6.93;2.50;;;10.30;83.20;;;;;;2081669;28;20049;-93
2021/10/17 03:23:13;;;;;;;5.60;2.20;;;10.30;83.20;;;;;;2089817;28;20124;-94
2021/10/17 03:24:14;;;;;;;5.88;2.35;;;10.30;83.20;;;;;;2073392;28;20053;-94
2021/10/17 03:25:15;;;;;;;4.85;2.20;;;10.30;83.20;;;;;;2073719;28;20538;-94
2021/10/17 03:26:16;;;;;;;6.53;2.17;;;10.30;83.30;;;;;;2081605;28;20095;-94
2021/10/17 03:27:16;;;;;;;4.65;2.08;;;10.30;83.30;;;;;;2082307;28;20384;-93
2021/10/17 03:28:17;;;;;;;4.22;2.00;;;10.30;83.30;;;;;;2082302;28;20133;-93
2021/10/17 03:29:17;;;;;;;5.38;2.30;;;10.30;83.30;;;;;;2082338;28;20566;-93
2021/10/17 03:30:18;;;;;;;6.18;2.10;;;10.30;83.40;;;;;;2081962;28;20034;-94
2021/10/17 03:31:19;;;;;;;4.45;2.25;;;10.30;84.00;;;;;;2089932;28;20037;-93
2021/10/17 03:32:20;;;;;;;4.43;2.03;;;10.30;83.40;;;;;;2081762;28;20404;-93
2021/10/17 03:33:22;;;;;;;4.88;2.20;;;10.30;83.30;;;;;;2088757;28;20127;-94
2021/10/17 03:34:22;;;;;;;5.45;2.22;;;10.30;83.30;;;;;;2089881;28;20095;-96
2021/10/17 03:35:23;;;;;;;4.50;2.17;;;10.30;83.40;;;;;;2073382;28;20095;-93
2021/10/17 03:36:23;;;;;;;4.85;2.17;;;10.30;83.30;;;;;;2065518;28;20141;-93
2021/10/17 03:37:24;;;;;;;5.10;2.38;;;10.30;83.30;;;;;;2073479;28;20034;-94
2021/10/17 03:38:25;;;;;;;6.53;2.45;;;10.30;83.30;;;;;;2065467;28;20042;-93
2021/10/17 03:39:25;;;;;;;5.03;2.22;;;10.30;83.30;;;;;;2073633;28;20065;-93
2021/10/17 03:40:26;;;;;;;6.88;2.50;;;10.30;83.30;;;;;;2089970;28;20078;-92
2021/10/17 03:41:27;;;;;;;4.47;2.15;;;10.30;83.30;;;;;;2089816;28;20127;-93
2021/10/17 03:42:28;;;;;;;5.60;2.30;;;10.30;83.40;;;;;;2089735;28;20068;-94
2021/10/17 03:43:30;;;;;;;4.22;2.05;;;10.30;83.40;;;;;;2090336;28;20079;-93
2021/10/17 03:44:30;;;;;;;5.30;2.28;;;10.30;83.50;;;;;;2089930;28;20036;-94
2021/10/17 03:45:31;;;;;;;5.00;2.30;;;10.30;83.40;;;;;;2089489;28;20033;-93
2021/10/17 03:46:32;;;;;;;3.25;2.00;;;10.30;83.40;;;;;;2089869;28;20135;-93
2021/10/17 03:47:33;;;;;;;6.25;2.10;;;10.30;83.50;;;;;;2089864;28;20434;-94
2021/10/17 03:48:34;;;;;;;5.40;2.72;;;10.40;83.50;;;;;;2081549;28;20033;-92
2021/10/17 03:49:34;;;;;;;4.90;2.33;;;10.40;83.50;;;;;;2087488;28;20174;-93
2021/10/17 03:50:35;;;;;;;5.45;2.22;;;10.40;83.50;;;;;;2081357;28;20049;-93
2021/10/17 03:51:36;;;;;;;5.22;2.10;;;10.30;84.10;;;;;;2073565;28;20483;-95
2021/10/17 03:52:36;;;;;;;4.13;2.22;;;10.30;83.50;;;;;;2081481;28;20041;-94
2021/10/17 03:53:37;;;;;;;4.15;2.30;;;10.40;83.50;;;;;;2081288;28;20499;-94
2021/10/17 03:54:41;;;;;;;5.35;2.50;;;10.40;83.50;;;;;;2073194;28;20076;-93
2021/10/17 03:55:41;;;;;;;7.45;2.42;;;10.30;83.50;;;;;;2073609;28;20050;-93
2021/10/17 03:56:42;;;;;;;5.05;2.30;;;10.40;83.60;;;;;;2081384;28;20033;-93
2021/10/17 03:57:42;;;;;;;4.07;2.13;;;10.30;83.60;;;;;;2082726;28;20034;-93
2021/10/17 03:58:43;;;;;;;5.53;2.50;;;10.30;83.50;;;;;;2086692;28;20120;-93
2021/10/17 03:59:45;;;;;;;6.57;2.13;;;10.30;83.60;;;;;;2091717;28;20017;-84
2021/10/17 04:00:45;;;;;;;5.13;2.30;;;10.30;83.60;;;;;;2089910;28;20036;-94
2021/10/17 04:01:46;;;;;;;4.88;2.28;;;10.30;83.60;;;;;;2081446;28;20515;-93
2021/10/17 04:02:47;;;;;;;5.50;2.50;;;10.30;83.60;;;;;;2073633;28;20034;-93
2021/10/17 04:03:47;;;;;;;5.05;2.30;;;10.30;83.60;;;;;;2073074;28;20034;-93
2021/10/17 04:04:48;;;;;;;4.63;2.25;;;10.30;83.60;;;;;;2083289;28;20033;-93
2021/10/17 04:05:49;;;;;;;5.20;2.10;;;10.30;83.60;;;;;;2089813;28;20052;-93
2021/10/17 04:06:49;;;;;;;5.07;2.33;;;10.30;83.60;;;;;;2081483;28;20037;-93
2021/10/17 04:07:50;;;;;;;4.68;2.17;;;10.30;84.10;;;;;;2073338;28;20111;-93
2021/10/17 04:08:50;;;;;;;4.60;2.35;;;10.30;83.50;;;;;;2073329;28;20041;-93
2021/10/17 04:09:51;;;;;;;5.57;2.55;;;10.30;83.60;;;;;;2073159;28;20034;-93
2021/10/17 04:10:52;;;;;;;4.03;2.30;;;10.30;83.60;;;;;;2073840;28;20522;-93
2021/10/17 04:11:52;;;;;;;6.68;2.50;;;10.30;83.50;;;;;;2074156;28;20137;-95
2021/10/17 04:12:53;;;;;;;5.47;2.30;;;10.30;83.50;;;;;;2083820;28;20129;-92
2021/10/17 04:13:54;;;;;;;4.50;2.20;;;10.30;83.50;;;;;;2083033;28;20029;-93
2021/10/17 04:14:55;;;;;;;5.57;2.35;;;10.30;83.50;;;;;;2082966;28;20146;-94
2021/10/17 04:15:56;;;;;;;5.28;2.40;;;10.30;83.50;;;;;;2082003;28;20037;-93
2021/10/17 04:16:57;;;;;;;4.97;2.20;;;10.30;83.50;;;;;;2081972;28;20034;-92
2021/10/17 04:17:58;;;;;;;5.55;2.25;;;10.30;83.50;;;;;;2083278;28;20041;-94
2021/10/17 04:18:58;;;;;;;5.93;2.40;;;10.30;83.60;;;;;;2074812;28;20034;-93
2021/10/17 04:19:59;;;;;;;4.78;2.30;;;10.30;83.50;;;;;;2074806;28;20042;-94
2021/10/17 04:21:00;;;;;;;5.93;2.50;;;10.30;83.50;;;;;;2085321;28;20053;-93
2021/10/17 04:22:00;;;;;;;4.95;2.33;;;10.30;83.60;;;;;;2074974;28;20044;-93
2021/10/17 04:23:03;;;;;;;5.68;2.55;;;10.30;83.60;;;;;;2083174;28;20132;-94
2021/10/17 04:24:04;;;;;;;4.80;2.40;;;10.30;83.60;;;;;;2083436;28;20061;-92
2021/10/17 04:25:05;;;;;;;5.90;2.72;;;10.20;83.50;;;;;;2075002;28;20380;-93
2021/10/17 04:26:06;;;;;;;5.60;2.50;;;10.30;83.50;;;;;;2075102;28;20133;-92
2021/10/17 04:27:08;;;;;;;5.20;2.60;;;10.20;83.40;;;;;;2083042;28;20408;-93
2021/10/17 04:28:09;;;;;;;5.50;2.28;;;10.20;83.30;;;;;;2075246;28;20037;-94
2021/10/17 04:29:10;;;;;;;6.22;2.83;;;10.20;83.30;;;;;;2091299;28;20041;-93
2021/10/17 04:30:11;;;;;;;5.57;2.67;;;10.20;83.30;;;;;;2087498;28;20033;-93
2021/10/17 04:31:11;;;;;;;5.63;2.50;;;10.20;83.30;;;;;;2083669;28;20045;-94
2021/10/17 04:32:12;;;;;;;4.07;2.65;;;10.20;83.20;;;;;;2080027;28;20046;-93
2021/10/17 04:33:13;;;;;;;4.45;2.65;;;10.20;83.10;;;;;;2074727;28;20053;-94
2021/10/17 04:34:13;;;;;;;6.00;2.72;;;10.20;83.10;;;;;;2093368;28;20086;-92
2021/10/17 04:35:14;;;;;;;5.35;2.53;;;10.20;83.00;;;;;;2093390;28;20106;-94
2021/10/17 04:36:15;;;;;;;6.80;2.75;;;10.20;83.00;;;;;;2085936;28;20080;-93
2021/10/17 04:37:16;;;;;;;6.20;2.65;;;10.20;83.00;;;;;;2087366;28;20041;-93
2021/10/17 04:38:17;;;;;;;5.47;2.95;;;10.20;82.90;;;;;;2095398;28;20036;-92
2021/10/17 04:39:17;;;;;;;6.93;2.85;;;10.20;82.90;;;;;;2095377;28;20060;-93
2021/10/17 04:40:18;;;;;;;5.45;2.80;;;10.20;82.90;;;;;;2087454;28;20109;-93
2021/10/17 04:41:19;;;;;;;6.40;3.08;;;10.20;83.00;;;;;;2078401;28;20053;-93
2021/10/17 04:42:20;;;;;;;5.15;2.60;;;10.20;83.00;;;;;;2076626;28;20497;-93
2021/10/17 04:43:20;;;;;;;6.20;3.15;;;10.10;83.00;;;;;;2074918;28;20034;-93
2021/10/17 04:44:21;;;;;;;5.75;3.10;;;10.20;83.10;;;;;;2074741;28;20034;-93
2021/10/17 04:45:22;;;;;;;6.53;2.72;;;10.10;83.10;;;;;;2083019;28;20049;-94
2021/10/17 04:46:23;;;;;;;6.57;3.00;;;10.10;83.10;;;;;;2091265;28;20044;-93
2021/10/17 04:47:23;;;;;;;5.15;2.40;;;10.10;83.20;;;;;;2082759;28;20061;-94
2021/10/17 04:48:24;;;;;;;4.80;2.38;;;10.10;83.20;;;;;;2066421;28;20069;-94
2021/10/17 04:49:27;;;;;;;4.28;2.40;;;10.10;83.80;;;;;;2066475;28;20049;-94
2021/10/17 04:50:28;;;;;;;4.63;2.60;;;10.10;83.30;;;;;;2074866;28;20092;-93
2021/10/17 04:51:28;;;;;;;5.13;2.67;;;10.10;83.90;;;;;;2075057;28;20049;-93
2021/10/17 04:52:29;;;;;;;5.95;2.60;;;10.10;83.30;;;;;;2074722;28;20487;-93
2021/10/17 04:53:30;;;;;;;5.35;2.78;;;10.10;83.30;;;;;;2083100;28;20144;-93
2021/10/17 04:54:30;;;;;;;6.60;2.80;;;10.10;83.30;;;;;;2083452;28;20084;-93
2021/10/17 04:55:32;;;;;;;6.38;2.90;;;10.10;83.40;;;;;;2083564;28;20041;-94
2021/10/17 04:56:32;;;;;;;5.25;2.88;;;10.10;83.40;;;;;;2082609;28;20104;-93
2021/10/17 04:57:33;;;;;;;5.07;2.83;;;10.10;83.40;;;;;;2074622;28;20026;-92
2021/10/17 04:58:36;;;;;;;6.22;2.63;;;10.10;83.40;;;;;;2066629;28;20405;-95
2021/10/17 04:59:37;;;;;;;6.57;2.75;;;10.10;83.30;;;;;;2075034;28;20034;-93
2021/10/17 05:00:38;;;;;;;4.78;2.67;;;10.10;83.30;;;;;;2082713;28;20163;-92
2021/10/17 05:01:39;;;;;;;5.97;2.47;;;10.10;83.30;;;;;;2074722;28;20038;-92
2021/10/17 05:02:39;;;;;;;5.05;2.65;;;10.10;83.30;;;;;;2077018;28;20041;-94
2021/10/17 05:03:40;;;;;;;5.25;2.95;;;10.10;83.40;;;;;;2074596;28;20394;-93
2021/10/17 05:04:40;;;;;;;5.95;2.60;;;10.10;83.40;;;;;;2082671;28;20079;-92
2021/10/17 05:05:42;;;;;;;4.40;2.60;;;10.10;83.40;;;;;;2073626;28;20038;-92
2021/10/17 05:06:42;;;;;;;5.20;2.70;;;10.10;83.40;;;;;;2074671;28;20581;-93
2021/10/17 05:07:43;;;;;;;6.40;2.95;;;10.10;83.40;;;;;;2074694;28;20041;-93
2021/10/17 05:08:44;;;;;;;4.65;2.78;;;10.10;83.40;;;;;;2082802;28;20423;-94
2021/10/17 05:09:45;;;;;;;6.93;2.70;;;10.10;83.40;;;;;;2090833;28;20037;-92
2021/10/17 05:10:46;;;;;;;8.00;3.00;;;10.10;83.30;;;;;;2090982;28;20068;-93
2021/10/17 05:11:46;;;;;;;5.47;2.90;;;10.00;83.30;;;;;;2074497;28;20539;-92
2021/10/17 05:12:47;;;;;;;5.90;2.80;;;10.00;83.30;;;;;;2083846;28;20033;-93
2021/10/17 05:13:48;;;;;;;6.70;2.72;;;10.00;83.30;;;;;;2076441;28;20451;-93
2021/10/17 05:14:49;;;;;;;4.88;2.50;;;10.00;83.30;;;;;;2092198;28;20072;-93
2021/10/17 05:15:49;;;;;;;5.85;2.90;;;10.00;83.30;;;;;;2093274;28;20068;-93
2021/10/17 05:16:50;;;;;;;5.75;2.83;;;10.00;83.30;;;;;;2076011;28;20122;-93
2021/10/17 05:17:51;;;;;;;4.82;2.58;;;10.00;83.40;;;;;;2075952;28;20034;-95